KPHT/PHT METAR and TAF weather

Enter ICAO airport designator
Station Type Date Time Source
KPHT METAR 2019/02/21 12:15 UTC NOAA

KPHT 211215Z AUTO 03005KT 1/4SM FG OVC002 02/02 A3017 RMK A01


Station Type Date Time Source
KPHT Decoded METAR 2019/02/21 12:15 UTC NOAA

Station name not available
Feb 21, 2019 - 07:15 AM EST / 2019.02.21 1215 UTC
Wind: from the NNE (030 degrees) at 6 MPH (5 KT):0
Visibility: 1/4 mile(s):0
Sky conditions: overcast
Weather: fog
Temperature: 35 F (2 C)
Windchill: 30 F (-1 C):1
Dew Point: 35 F (2 C)
Relative Humidity: 100%
Pressure (altimeter): 30.17 in. Hg (1021 hPa)
ob: KPHT 211215Z AUTO 03005KT 1/4SM FG OVC002 02/02 A3017 RMK A01
cycle: 12

Station Type Date Time Source
KPHT TAF UTC NOAA

Error!


Example: see airport list